Time;durP1;ratioP1;P1;durP2;ratioP2;P2;SDS_P1;SDS_P2;PMS_P1;PMS_P2;Temp;Humidity;BMP_temperature;BMP_pressure;BME280_temperature;BME280_humidity;BME280_pressure;Samples;Min_cycle;Max_cycle;Signal;HPM_P1;HPM_P2
2023/10/27 00:00:31;;;;;;;38.50;16.58;;;;;;;15.25;76.05;99298.41;5028188;28;20060;-45
2023/10/27 00:02:56;;;;;;;41.42;16.23;;;;;;;15.25;76.06;99303.66;5027859;28;20034;-43
2023/10/27 00:05:22;;;;;;;38.92;16.13;;;;;;;15.21;76.12;99296.78;5027586;28;20044;-45
2023/10/27 00:07:47;;;;;;;42.28;16.77;;;;;;;15.22;76.09;99302.91;5028402;28;20383;-46
2023/10/27 00:10:13;;;;;;;42.58;16.23;;;;;;;15.12;76.15;99302.34;5027830;28;20037;-47
2023/10/27 00:12:38;;;;;;;43.30;17.27;;;;;;;15.01;76.65;99300.00;5028248;28;20526;-47
2023/10/27 00:15:05;;;;;;;49.20;18.05;;;;;;;14.59;78.17;99296.84;5029824;28;20616;-46
2023/10/27 00:17:30;;;;;;;48.55;18.10;;;;;;;14.78;77.96;99296.34;5030442;28;20103;-46
2023/10/27 00:19:56;;;;;;;50.92;18.98;;;;;;;14.72;78.61;99296.50;5030749;28;20514;-45
2023/10/27 00:22:22;;;;;;;49.45;17.90;;;;;;;15.09;76.74;99296.28;5031966;28;20076;-43
2023/10/27 00:24:47;;;;;;;55.65;18.20;;;;;;;15.30;76.29;99288.66;5030194;28;20048;-46
2023/10/27 00:27:12;;;;;;;51.38;18.23;;;;;;;15.32;76.09;99283.31;5030743;28;20116;-45
2023/10/27 00:29:38;;;;;;;55.25;19.23;;;;;;;15.02;76.89;99293.84;5031529;28;20403;-47
2023/10/27 00:32:03;;;;;;;52.55;18.17;;;;;;;15.10;77.36;99288.38;5030617;28;20033;-46
2023/10/27 00:34:29;;;;;;;49.15;17.80;;;;;;;15.16;76.98;99284.72;4997107;28;20308;-45
2023/10/27 00:36:54;;;;;;;51.47;17.38;;;;;;;15.14;77.04;99278.63;5030699;28;20176;-45
2023/10/27 00:39:20;;;;;;;47.90;17.38;;;;;;;15.28;76.30;99272.06;5028680;28;20045;-49
2023/10/27 00:41:45;;;;;;;53.08;17.67;;;;;;;15.28;76.23;99272.06;5013639;28;20049;-46
2023/10/27 00:44:10;;;;;;;49.55;17.05;;;;;;;14.91;77.75;99272.31;5031020;28;20040;-44
2023/10/27 00:46:36;;;;;;;51.08;18.42;;;;;;;14.89;77.63;99268.88;5029636;28;20029;-48
2023/10/27 00:49:02;;;;;;;46.78;17.55;;;;;;;14.90;78.13;99270.59;5031838;28;20051;-44
2023/10/27 00:51:28;;;;;;;46.22;17.10;;;;;;;15.22;76.93;99261.75;5031222;28;20029;-48
2023/10/27 00:53:55;;;;;;;46.97;16.90;;;;;;;14.97;77.96;99266.91;5031499;28;20025;-47
2023/10/27 00:56:21;;;;;;;43.90;17.27;;;;;;;15.05;77.38;99264.06;5031579;28;20034;-47
2023/10/27 00:58:47;;;;;;;42.80;16.20;;;;;;;15.10;77.26;99262.13;5031154;28;20040;-47
2023/10/27 01:01:17;;;;;;;41.58;16.10;;;;;;;15.02;78.07;99262.38;5031495;28;20037;-47
2023/10/27 01:03:43;;;;;;;39.17;15.70;;;;;;;15.06;77.88;99262.28;5031257;28;20122;-47
2023/10/27 01:06:09;;;;;;;39.47;15.15;;;;;;;15.12;77.79;99262.97;5031599;28;20093;-48
2023/10/27 01:08:34;;;;;;;35.75;14.48;;;;;;;15.33;76.60;99256.16;5030925;28;20051;-48
2023/10/27 01:11:01;;;;;;;36.83;14.93;;;;;;;15.00;77.60;99252.84;5031533;28;20037;-46
2023/10/27 01:13:26;;;;;;;34.17;14.38;;;;;;;14.98;78.51;99252.88;5030044;28;20041;-46
2023/10/27 01:15:51;;;;;;;33.45;13.95;;;;;;;15.19;77.45;99253.09;5030559;28;20033;-46
2023/10/27 01:18:17;;;;;;;32.25;13.60;;;;;;;15.25;77.30;99250.28;5032408;28;20092;-44
2023/10/27 01:20:42;;;;;;;32.15;13.27;;;;;;;15.14;77.36;99244.50;5032331;28;20041;-49
2023/10/27 01:23:07;;;;;;;32.38;13.38;;;;;;;15.19;77.78;99245.22;5032402;28;20127;-47
2023/10/27 01:25:33;;;;;;;27.75;12.38;;;;;;;15.06;78.07;99241.28;5030729;28;20036;-47
2023/10/27 01:27:58;;;;;;;27.33;11.80;;;;;;;15.32;77.18;99236.06;5031050;28;20508;-46
2023/10/27 01:30:24;;;;;;;26.27;11.75;;;;;;;15.17;77.71;99240.06;5031431;28;20145;-43
2023/10/27 01:32:49;;;;;;;26.10;11.88;;;;;;;15.11;77.26;99245.50;5030657;28;20400;-43
2023/10/27 01:35:15;;;;;;;25.10;11.55;;;;;;;14.90;78.82;99238.25;5030990;28;20056;-45
2023/10/27 01:37:40;;;;;;;21.20;10.90;;;;;;;15.03;78.28;99240.47;5030671;28;20040;-47
2023/10/27 01:40:07;;;;;;;23.85;11.40;;;;;;;15.18;77.71;99240.91;5031409;28;20037;-47
2023/10/27 01:42:34;;;;;;;23.50;11.30;;;;;;;15.08;77.93;99234.22;5030141;28;20038;-45
2023/10/27 01:45:03;;;;;;;23.27;11.60;;;;;;;15.00;78.48;99229.22;5030338;28;20128;-49
2023/10/27 01:47:29;;;;;;;23.85;11.43;;;;;;;14.86;79.36;99240.13;5030234;28;20035;-45
2023/10/27 01:49:55;;;;;;;24.38;11.77;;;;;;;15.07;78.45;99237.72;5031354;28;20095;-46
2023/10/27 01:52:20;;;;;;;24.20;11.60;;;;;;;14.92;79.24;99231.22;5031309;28;20053;-47
2023/10/27 01:54:46;;;;;;;24.70;11.20;;;;;;;14.94;79.02;99227.63;5028809;28;20407;-45
2023/10/27 01:57:11;;;;;;;22.42;11.52;;;;;;;14.44;80.86;99229.13;5031295;28;20044;-44
2023/10/27 01:59:37;;;;;;;23.05;10.93;;;;;;;14.67;80.41;99220.59;5030591;28;20045;-44
2023/10/27 02:02:02;;;;;;;22.02;11.15;;;;;;;14.87;79.19;99228.72;5030776;28;20049;-44
2023/10/27 02:04:28;;;;;;;20.30;10.70;;;;;;;15.02;78.95;99228.25;5030890;28;20568;-46
2023/10/27 02:06:54;;;;;;;21.45;10.80;;;;;;;14.96;78.79;99225.81;5030911;28;20029;-42
2023/10/27 02:09:20;;;;;;;21.30;10.95;;;;;;;14.87;79.66;99227.88;5030605;28;20042;-44
2023/10/27 02:11:46;;;;;;;18.25;9.82;;;;;;;15.12;78.66;99215.72;5030239;28;20041;-46
2023/10/27 02:14:12;;;;;;;20.13;10.50;;;;;;;15.10;78.15;99216.66;5030537;28;20053;-43
2023/10/27 02:16:38;;;;;;;20.25;10.27;;;;;;;14.90;79.10;99215.50;5029932;28;20063;-45
2023/10/27 02:19:03;;;;;;;21.33;10.35;;;;;;;14.93;78.99;99218.06;5030315;28;20128;-44
2023/10/27 02:21:29;;;;;;;20.10;10.52;;;;;;;15.02;78.50;99220.38;5030165;28;20041;-44
2023/10/27 02:23:54;;;;;;;21.60;10.07;;;;;;;15.06;78.79;99212.41;5030030;28;20041;-45
2023/10/27 02:26:20;;;;;;;19.35;10.05;;;;;;;15.09;78.37;99214.94;5031383;28;20060;-44
2023/10/27 02:28:45;;;;;;;21.30;10.27;;;;;;;14.83;79.39;99213.09;5033401;28;20068;-44
2023/10/27 02:31:10;;;;;;;20.23;10.52;;;;;;;14.88;78.85;99214.69;5032397;28;20053;-43
2023/10/27 02:33:36;;;;;;;19.67;10.00;;;;;;;14.50;81.00;99217.59;5031592;28;20041;-42
2023/10/27 02:36:02;;;;;;;19.85;9.85;;;;;;;14.64;80.27;99215.41;5030805;28;20037;-44
2023/10/27 02:38:27;;;;;;;19.63;9.65;;;;;;;14.80;79.57;99214.06;5029153;28;20030;-49
2023/10/27 02:40:53;;;;;;;19.05;9.70;;;;;;;14.85;79.98;99208.69;5030298;28;20079;-40
2023/10/27 02:43:18;;;;;;;20.95;9.85;;;;;;;14.97;79.63;99213.56;5030282;28;20053;-43
2023/10/27 02:45:44;;;;;;;20.65;10.23;;;;;;;14.56;80.94;99213.03;5029845;28;20038;-45
2023/10/27 02:48:09;;;;;;;19.83;10.10;;;;;;;14.64;81.14;99215.41;5030585;28;20033;-47
2023/10/27 02:50:35;;;;;;;19.33;9.70;;;;;;;15.04;79.14;99209.84;5030027;28;20033;-44
2023/10/27 02:53:00;;;;;;;20.25;9.88;;;;;;;14.74;80.23;99210.78;5030352;28;20030;-44
2023/10/27 02:55:26;;;;;;;19.85;10.05;;;;;;;14.67;80.43;99217.09;5030648;28;20408;-44
2023/10/27 02:57:51;;;;;;;20.63;10.25;;;;;;;15.08;79.23;99215.84;5030640;28;20100;-44
2023/10/27 03:00:18;;;;;;;17.98;9.23;;;;;;;15.10;79.27;99220.13;5030662;28;20030;-43
2023/10/27 03:02:44;;;;;;;19.90;9.90;;;;;;;14.83;79.71;99215.72;5028223;28;20041;-48
2023/10/27 03:05:09;;;;;;;19.73;9.20;;;;;;;15.21;78.57;99206.66;5030415;28;20040;-46
2023/10/27 03:07:35;;;;;;;16.52;8.70;;;;;;;15.34;77.73;99211.50;5029136;28;20492;-46
2023/10/27 03:10:00;;;;;;;17.17;8.82;;;;;;;15.43;77.62;99202.44;5029385;28;20067;-47
2023/10/27 03:12:25;;;;;;;18.50;9.05;;;;;;;15.42;77.19;99208.63;5029628;28;20037;-48
2023/10/27 03:14:51;;;;;;;15.48;8.55;;;;;;;15.37;77.73;99207.88;5028459;28;20033;-46
2023/10/27 03:17:16;;;;;;;15.15;8.45;;;;;;;15.34;78.28;99202.75;5029617;28;20508;-45
2023/10/27 03:19:42;;;;;;;15.30;8.50;;;;;;;15.37;77.57;99203.50;5029051;28;20045;-47
2023/10/27 03:22:07;;;;;;;14.93;8.32;;;;;;;15.43;77.71;99207.69;5029299;28;20458;-48
2023/10/27 03:24:33;;;;;;;15.40;7.43;;;;;;;15.44;77.70;99209.41;5028869;28;20042;-43
2023/10/27 03:26:58;;;;;;;14.60;7.78;;;;;;;15.40;77.66;99202.53;5029778;28;20559;-46
2023/10/27 03:29:24;;;;;;;13.75;7.32;;;;;;;15.15;78.86;99207.72;5029662;28;20041;-44
2023/10/27 03:31:52;;;;;;;14.95;7.75;;;;;;;15.27;78.23;99204.72;5029510;28;20411;-46
2023/10/27 03:34:17;;;;;;;13.80;7.15;;;;;;;15.26;78.50;99199.50;5029649;28;20037;-53
2023/10/27 03:36:43;;;;;;;12.80;7.00;;;;;;;15.27;78.25;99199.47;5028787;28;20040;-43
2023/10/27 03:39:09;;;;;;;13.80;6.65;;;;;;;15.11;78.77;99197.38;5027997;28;20527;-44
2023/10/27 03:41:34;;;;;;;13.23;6.70;;;;;;;15.33;78.01;99190.53;5028834;28;20041;-46
2023/10/27 03:43:59;;;;;;;11.25;5.90;;;;;;;15.20;78.22;99187.44;5029249;28;20050;-44
2023/10/27 03:46:25;;;;;;;12.43;6.40;;;;;;;15.30;78.30;99195.88;5029721;28;20482;-46
2023/10/27 03:48:50;;;;;;;11.25;5.90;;;;;;;15.14;79.08;99190.25;5029811;28;20049;-45
2023/10/27 03:51:15;;;;;;;12.02;5.90;;;;;;;14.84;79.71;99188.59;5033438;28;20068;-46
2023/10/27 03:53:41;;;;;;;10.93;5.80;;;;;;;15.05;79.37;99185.31;5032991;28;20044;-46
2023/10/27 03:56:07;;;;;;;11.73;5.75;;;;;;;15.15;78.81;99189.34;5032870;28;20547;-42
2023/10/27 03:58:32;;;;;;;10.75;5.72;;;;;;;15.25;78.43;99193.38;5031122;28;20033;-50
2023/10/27 04:00:57;;;;;;;10.95;6.05;;;;;;;15.22;78.36;99192.63;5032897;28;20064;-44
2023/10/27 04:03:23;;;;;;;10.93;5.72;;;;;;;15.15;78.70;99196.38;5034676;28;20369;-49
2023/10/27 04:05:48;;;;;;;10.88;5.80;;;;;;;15.26;78.57;99186.38;5032693;28;20037;-47
2023/10/27 04:08:14;;;;;;;12.25;6.00;;;;;;;15.20;78.64;99191.81;5033189;28;20153;-44
2023/10/27 04:10:39;;;;;;;12.43;6.18;;;;;;;15.09;78.91;99193.94;5030539;28;20041;-47
2023/10/27 04:13:07;;;;;;;11.50;5.80;;;;;;;15.16;79.15;99190.22;5032596;28;20079;-46
2023/10/27 04:15:33;;;;;;;9.82;5.65;;;;;;;15.22;78.50;99188.25;5030665;28;20045;-47
2023/10/27 04:17:58;;;;;;;12.30;5.93;;;;;;;15.41;78.04;99185.88;5030940;28;20030;-47
2023/10/27 04:20:23;;;;;;;11.57;5.90;;;;;;;15.57;77.12;99191.50;5032581;28;20037;-50
2023/10/27 04:22:49;;;;;;;12.18;6.03;;;;;;;15.59;77.00;99184.44;5032048;28;20051;-47
2023/10/27 04:25:15;;;;;;;12.20;6.38;;;;;;;15.27;78.44;99188.09;5032241;28;20038;-45
2023/10/27 04:27:41;;;;;;;11.95;6.38;;;;;;;15.49;77.83;99185.66;5031650;28;20495;-47
2023/10/27 04:30:08;;;;;;;11.73;6.30;;;;;;;15.63;76.92;99189.53;5032493;28;20037;-46
2023/10/27 04:32:38;;;;;;;11.75;6.13;;;;;;;15.49;77.32;99196.97;5032005;28;20033;-42
2023/10/27 04:35:04;;;;;;;11.90;6.20;;;;;;;15.36;77.67;99193.06;5032018;28;20037;-44
2023/10/27 04:37:32;;;;;;;12.85;6.45;;;;;;;15.34;78.06;99192.25;5032047;28;20037;-44
2023/10/27 04:39:58;;;;;;;14.02;6.63;;;;;;;15.30;77.70;99191.50;5032657;28;20053;-48
2023/10/27 04:42:23;;;;;;;13.05;6.53;;;;;;;15.58;76.87;99199.34;5032259;28;20112;-44
2023/10/27 04:44:49;;;;;;;12.32;6.70;;;;;;;15.64;76.84;99195.66;5030444;28;20125;-46
2023/10/27 04:47:14;;;;;;;12.85;6.63;;;;;;;15.54;77.10;99200.38;5031796;28;20058;-44
2023/10/27 04:49:39;;;;;;;15.77;7.40;;;;;;;15.55;76.96;99206.47;5030107;28;20038;-45
2023/10/27 04:52:05;;;;;;;12.68;6.70;;;;;;;15.46;77.08;99202.34;5032010;28;20055;-49
2023/10/27 04:54:31;;;;;;;12.98;6.78;;;;;;;15.66;76.54;99194.69;5031369;28;20037;-45
2023/10/27 04:56:56;;;;;;;15.65;7.30;;;;;;;15.51;77.04;99199.56;5032160;28;20040;-47
2023/10/27 04:59:22;;;;;;;14.50;6.78;;;;;;;15.25;78.46;99205.66;5030662;28;20150;-47
2023/10/27 05:01:47;;;;;;;13.98;7.00;;;;;;;15.65;76.39;99195.59;5031113;28;20121;-47
2023/10/27 05:04:13;;;;;;;14.27;7.18;;;;;;;15.65;76.70;99195.59;5031844;28;20034;-45
2023/10/27 05:06:38;;;;;;;13.18;7.15;;;;;;;15.70;76.45;99198.94;5031172;28;20045;-49
2023/10/27 05:09:03;;;;;;;14.45;7.32;;;;;;;15.59;77.09;99203.69;5031626;28;20507;-44
2023/10/27 05:11:29;;;;;;;12.52;7.03;;;;;;;15.67;76.91;99193.81;5030799;28;20038;-45
2023/10/27 05:13:54;;;;;;;13.38;6.95;;;;;;;15.74;76.14;99197.03;5031420;28;20121;-46
2023/10/27 05:16:20;;;;;;;14.48;7.10;;;;;;;15.75;75.89;99196.13;5031499;28;20037;-45
2023/10/27 05:18:45;;;;;;;13.93;7.00;;;;;;;15.74;76.33;99200.53;5031086;28;20041;-46
2023/10/27 05:21:17;;;;;;;14.05;7.13;;;;;;;15.49;77.40;99194.34;5031775;28;20037;-45
2023/10/27 05:23:43;;;;;;;15.32;7.28;;;;;;;15.64;76.77;99188.63;5030476;28;20119;-50
2023/10/27 05:26:08;;;;;;;14.45;7.20;;;;;;;15.64;76.48;99191.25;5031456;28;20069;-46
2023/10/27 05:28:34;;;;;;;15.50;7.25;;;;;;;15.61;76.62;99194.00;5030615;28;20037;-45
2023/10/27 05:30:59;;;;;;;14.93;7.22;;;;;;;15.68;76.40;99186.75;5031071;28;20045;-47
2023/10/27 05:33:24;;;;;;;15.27;7.30;;;;;;;15.67;76.67;99190.31;5031195;28;20064;-43
2023/10/27 05:35:50;;;;;;;14.88;7.57;;;;;;;15.56;77.25;99198.53;5030297;28;20032;-45
2023/10/27 05:38:15;;;;;;;15.95;7.45;;;;;;;15.42;77.39;99204.22;5031154;28;20044;-49
2023/10/27 05:40:41;;;;;;;14.43;7.40;;;;;;;15.54;77.10;99197.75;5030488;28;20041;-44
2023/10/27 05:43:07;;;;;;;13.70;7.03;;;;;;;15.61;76.57;99194.00;5030914;28;20538;-45
2023/10/27 05:45:32;;;;;;;14.50;6.82;;;;;;;15.50;76.95;99201.31;5030257;28;20088;-45
2023/10/27 05:47:58;;;;;;;15.77;7.43;;;;;;;15.40;77.61;99186.78;5029591;28;20519;-43
2023/10/27 05:50:23;;;;;;;15.23;7.28;;;;;;;15.27;78.14;99191.59;5031808;28;20128;-43
2023/10/27 05:52:48;;;;;;;13.73;6.93;;;;;;;15.47;77.20;99193.56;5031010;28;20036;-46
2023/10/27 05:55:14;;;;;;;17.08;7.28;;;;;;;15.47;77.08;99188.31;5031357;28;20056;-48
2023/10/27 05:57:39;;;;;;;14.48;6.68;;;;;;;15.42;77.24;99195.50;5030541;28;20499;-44
2023/10/27 06:00:05;;;;;;;16.15;7.22;;;;;;;15.34;77.96;99195.72;5031119;28;20471;-45
2023/10/27 06:02:31;;;;;;;15.85;7.45;;;;;;;15.43;77.39;99199.81;5030698;28;20094;-43
2023/10/27 06:04:56;;;;;;;17.20;7.85;;;;;;;15.40;77.60;99192.03;5031443;28;20049;-47
2023/10/27 06:07:21;;;;;;;14.43;7.18;;;;;;;15.48;77.41;99195.28;5032213;28;20088;-46
2023/10/27 06:09:47;;;;;;;15.30;7.30;;;;;;;15.49;77.31;99194.34;5030997;28;20065;-43
2023/10/27 06:12:12;;;;;;;14.32;7.30;;;;;;;15.49;77.19;99196.97;5030743;28;20042;-44
2023/10/27 06:14:43;;;;;;;17.70;7.63;;;;;;;15.45;77.26;99203.25;5030029;28;20121;-44
2023/10/27 06:17:10;;;;;;;15.65;7.43;;;;;;;15.46;77.58;99197.09;5031808;28;20491;-44
2023/10/27 06:19:36;;;;;;;14.90;7.30;;;;;;;15.51;77.39;99207.44;5029763;28;20041;-46
2023/10/27 06:22:01;;;;;;;14.95;7.57;;;;;;;15.49;77.20;99202.22;5030060;28;20048;-46
2023/10/27 06:24:26;;;;;;;17.90;8.27;;;;;;;15.51;77.25;99199.56;5030201;28;20112;-44
2023/10/27 06:26:52;;;;;;;15.10;7.22;;;;;;;15.49;76.87;99202.22;5028272;28;20061;-45
2023/10/27 06:29:17;;;;;;;14.02;7.03;;;;;;;15.47;77.33;99206.69;5030203;28;20515;-45
2023/10/27 06:31:43;;;;;;;15.85;7.47;;;;;;;15.45;77.39;99198.00;5029603;28;20043;-46
2023/10/27 06:34:08;;;;;;;15.77;7.43;;;;;;;15.05;79.02;99211.56;5029789;28;20037;-45
2023/10/27 06:36:34;;;;;;;15.60;7.03;;;;;;;15.32;77.84;99208.03;5027770;28;20472;-44
2023/10/27 06:38:59;;;;;;;14.82;6.85;;;;;;;15.43;77.55;99203.28;5029730;28;20091;-44
2023/10/27 06:41:24;;;;;;;17.13;7.40;;;;;;;15.41;77.38;99204.28;5029761;28;20427;-40
2023/10/27 06:43:50;;;;;;;15.82;6.88;;;;;;;15.44;77.47;99214.66;5028982;28;20400;-47
2023/10/27 06:46:15;;;;;;;13.73;7.05;;;;;;;15.20;78.09;99205.81;5031232;28;20175;-46
2023/10/27 06:48:41;;;;;;;16.65;7.65;;;;;;;15.14;78.91;99213.88;5032102;28;20041;-47
2023/10/27 06:51:06;;;;;;;16.30;7.85;;;;;;;15.38;77.88;99215.72;5031800;28;20040;-46
2023/10/27 06:53:32;;;;;;;15.13;7.40;;;;;;;15.46;77.62;99210.22;5028451;28;20044;-44
2023/10/27 06:55:57;;;;;;;16.15;7.22;;;;;;;15.44;77.81;99214.66;5029558;28;20025;-44
2023/10/27 06:58:23;;;;;;;13.48;6.60;;;;;;;15.48;77.60;99211.03;5029545;28;20043;-44
2023/10/27 07:00:48;;;;;;;16.00;7.38;;;;;;;15.48;77.79;99218.06;5027978;28;20041;-45
2023/10/27 07:03:14;;;;;;;15.60;7.22;;;;;;;15.53;77.16;99224.06;5029176;28;20038;-44
2023/10/27 07:05:39;;;;;;;16.52;7.53;;;;;;;15.50;77.23;99221.47;5028728;28;20048;-47
2023/10/27 07:08:06;;;;;;;13.98;6.75;;;;;;;15.51;77.35;99231.06;5029637;28;20124;-47
2023/10/27 07:10:31;;;;;;;14.43;7.05;;;;;;;15.49;77.72;99235.53;5028963;28;20049;-44
2023/10/27 07:12:57;;;;;;;14.70;6.85;;;;;;;15.54;77.30;99229.25;5029509;28;20029;-43
2023/10/27 07:15:22;;;;;;;14.95;6.90;;;;;;;15.54;77.45;99233.66;5029032;28;20044;-46
2023/10/27 07:17:47;;;;;;;16.27;7.63;;;;;;;15.56;77.72;99239.69;5029316;28;20033;-47
2023/10/27 07:20:13;;;;;;;14.95;6.90;;;;;;;15.55;77.78;99231.00;5029540;28;20095;-44
2023/10/27 07:22:38;;;;;;;18.88;7.63;;;;;;;15.56;77.70;99237.94;5028528;28;20399;-43
2023/10/27 07:25:04;;;;;;;17.33;7.35;;;;;;;15.57;77.69;99239.66;5033073;28;20068;-47
2023/10/27 07:27:30;;;;;;;17.13;7.32;;;;;;;15.55;77.57;99241.50;5032998;28;20037;-45
2023/10/27 07:29:55;;;;;;;16.65;7.25;;;;;;;15.59;77.40;99236.97;5033362;28;20033;-44
2023/10/27 07:32:21;;;;;;;14.93;7.18;;;;;;;15.59;77.43;99243.09;5033445;28;20036;-44
2023/10/27 07:34:48;;;;;;;15.93;8.00;;;;;;;15.47;77.83;99238.22;5032526;28;20446;-46
2023/10/27 07:37:13;;;;;;;14.70;7.28;;;;;;;15.52;77.93;99241.56;5037348;28;20059;-45
2023/10/27 07:39:39;;;;;;;14.93;7.22;;;;;;;15.55;77.59;99231.00;5035599;28;20088;-43
2023/10/27 07:42:07;;;;;;;18.48;7.07;;;;;;;15.59;77.75;99234.34;5036808;28;20103;-44
2023/10/27 07:44:32;;;;;;;17.10;7.15;;;;;;;15.58;77.59;99237.88;5034669;28;20428;-45
2023/10/27 07:46:58;;;;;;;14.38;6.78;;;;;;;15.68;77.75;99236.66;5033075;28;20109;-45
2023/10/27 07:49:23;;;;;;;15.15;6.95;;;;;;;15.69;77.63;99243.63;5033111;28;20037;-47
2023/10/27 07:51:49;;;;;;;14.43;6.75;;;;;;;15.66;77.65;99249.00;5031329;28;20037;-46
2023/10/27 07:54:15;;;;;;;13.90;6.85;;;;;;;15.70;77.27;99248.84;5033343;28;20048;-44
2023/10/27 07:56:40;;;;;;;14.48;6.63;;;;;;;15.71;77.60;99242.69;5032315;28;20037;-45
2023/10/27 07:59:05;;;;;;;14.38;6.93;;;;;;;15.75;77.35;99252.19;5033248;28;20044;-45
2023/10/27 08:01:31;;;;;;;12.82;6.82;;;;;;;15.77;77.45;99253.00;5032329;28;20042;-44
2023/10/27 08:03:56;;;;;;;15.77;7.00;;;;;;;15.77;77.27;99252.13;5033045;28;20038;-49
2023/10/27 08:06:22;;;;;;;15.30;7.15;;;;;;;15.83;77.64;99255.41;5032686;28;20041;-45
2023/10/27 08:08:48;;;;;;;15.63;7.40;;;;;;;15.80;77.44;99252.88;5032551;28;20041;-45
2023/10/27 08:11:18;;;;;;;13.85;7.13;;;;;;;15.68;77.60;99252.44;5034000;28;20508;-47
2023/10/27 08:13:44;;;;;;;14.95;7.25;;;;;;;15.81;77.22;99256.38;5034783;28;20037;-49
2023/10/27 08:16:09;;;;;;;16.30;7.32;;;;;;;15.80;77.45;99260.75;5034893;28;20045;-50
2023/10/27 08:18:36;;;;;;;16.40;7.13;;;;;;;15.90;77.37;99258.69;5032086;28;20037;-48
2023/10/27 08:21:02;;;;;;;13.40;6.65;;;;;;;15.84;77.25;99261.53;5034293;28;20120;-45
2023/10/27 08:23:28;;;;;;;14.65;6.85;;;;;;;15.91;77.09;99262.19;5032758;28;20088;-46
2023/10/27 08:25:54;;;;;;;11.90;6.68;;;;;;;15.94;77.27;99260.31;5032506;28;20031;-44
2023/10/27 08:28:20;;;;;;;13.52;6.80;;;;;;;15.95;77.34;99263.78;5032949;28;20048;-44
2023/10/27 08:30:46;;;;;;;15.77;7.20;;;;;;;15.96;76.87;99266.38;5030445;28;20411;-47
2023/10/27 08:33:14;;;;;;;14.60;6.75;;;;;;;15.78;76.62;99267.00;5032491;28;20025;-45
2023/10/27 08:35:39;;;;;;;13.32;6.40;;;;;;;16.07;76.22;99260.75;5030707;28;20041;-47
2023/10/27 08:38:04;;;;;;;14.30;7.13;;;;;;;16.05;75.84;99263.41;5032427;28;20498;-45
2023/10/27 08:40:31;;;;;;;12.90;6.65;;;;;;;16.14;75.44;99264.88;5031750;28;20049;-44
2023/10/27 08:42:57;;;;;;;12.00;6.00;;;;;;;16.05;75.58;99262.56;5032077;28;20033;-45
2023/10/27 08:45:23;;;;;;;12.25;6.38;;;;;;;15.98;76.05;99267.16;5032361;28;20037;-48
2023/10/27 08:47:49;;;;;;;14.60;7.03;;;;;;;16.05;75.85;99257.31;5031715;28;20044;-45
2023/10/27 08:50:14;;;;;;;12.65;6.55;;;;;;;16.06;75.61;99261.66;5032261;28;20033;-44
2023/10/27 08:52:40;;;;;;;11.35;6.10;;;;;;;15.97;75.59;99269.88;5031478;28;20392;-48
2023/10/27 08:55:12;;;;;;;11.13;6.13;;;;;;;16.01;75.80;99255.69;5031748;28;20095;-44
2023/10/27 08:57:38;;;;;;;11.65;6.25;;;;;;;15.93;76.60;99263.84;5030981;28;20044;-44
2023/10/27 09:00:08;;;;;;;10.77;5.75;;;;;;;15.87;76.93;99261.41;5031788;28;20034;-44
2023/10/27 09:02:38;;;;;;;11.63;5.93;;;;;;;15.86;76.92;99251.81;5031868;28;20029;-45
2023/10/27 09:05:06;;;;;;;10.50;5.70;;;;;;;16.02;76.83;99252.16;5032111;28;20086;-45
2023/10/27 09:07:32;;;;;;;10.13;5.38;;;;;;;15.97;76.90;99260.22;5031328;28;20515;-46
2023/10/27 09:10:01;;;;;;;11.55;6.00;;;;;;;15.56;77.79;99264.19;5032179;28;20030;-46
2023/10/27 09:12:30;;;;;;;9.02;5.35;;;;;;;15.73;77.04;99263.66;5032353;28;20052;-45
2023/10/27 09:15:00;;;;;;;10.20;5.93;;;;;;;15.63;77.57;99265.72;5031773;28;20071;-44
2023/10/27 09:17:26;;;;;;;9.63;5.47;;;;;;;15.70;77.38;99261.13;5032307;28;20734;-44
2023/10/27 09:20:07;;;;;;;9.80;5.50;;;;;;;15.90;76.39;99266.59;5032308;28;20037;-48
2023/10/27 09:22:36;;;;;;;9.85;5.88;;;;;;;16.21;75.39;99267.25;5032127;28;20037;-44
2023/10/27 09:25:17;;;;;;;10.90;5.80;;;;;;;15.52;77.39;99269.56;5031656;28;20042;-45
2023/10/27 09:27:44;;;;;;;8.75;5.40;;;;;;;16.09;75.65;99266.81;5031769;28;20127;-44
2023/10/27 09:30:24;;;;;;;8.65;5.28;;;;;;;16.28;75.02;99269.66;5033149;28;20037;-50
2023/10/27 09:32:49;;;;;;;9.40;5.38;;;;;;;16.03;76.20;99269.66;5037706;28;20044;-50
2023/10/27 09:35:15;;;;;;;12.68;5.68;;;;;;;16.13;75.79;99268.41;5033716;28;20041;-47
2023/10/27 09:37:46;;;;;;;9.43;5.50;;;;;;;16.16;75.79;99271.78;5030477;28;20049;-43
2023/10/27 09:40:13;;;;;;;11.32;5.82;;;;;;;15.87;76.74;99273.69;5031078;28;20034;-48
2023/10/27 09:42:39;;;;;;;9.98;5.63;;;;;;;15.68;77.21;99276.06;5028497;28;20046;-47
2023/10/27 09:45:13;;;;;;;8.60;5.00;;;;;;;15.38;78.03;99278.75;5030177;28;20037;-48
2023/10/27 09:47:41;;;;;;;9.07;5.35;;;;;;;15.51;77.48;99279.22;5030171;28;20037;-45
2023/10/27 09:50:09;;;;;;;9.02;5.30;;;;;;;15.54;77.51;99279.16;5030409;28;20438;-45
2023/10/27 09:52:39;;;;;;;7.65;5.05;;;;;;;15.63;77.33;99281.47;5030115;28;20410;-49
2023/10/27 09:55:05;;;;;;;8.82;5.05;;;;;;;15.60;77.60;99275.47;5030309;28;20622;-45
2023/10/27 09:57:32;;;;;;;8.60;5.13;;;;;;;15.75;76.68;99275.81;5030042;28;20036;-47
2023/10/27 10:00:01;;;;;;;7.35;4.63;;;;;;;15.92;76.04;99274.44;5029197;28;20117;-45
2023/10/27 10:02:31;;;;;;;9.13;5.40;;;;;;;15.65;77.14;99274.41;5030415;28;20042;-45
2023/10/27 10:04:57;;;;;;;8.60;5.20;;;;;;;15.46;78.00;99283.75;5029703;28;20030;-44
2023/10/27 10:07:47;;;;;;;8.23;4.80;;;;;;;15.89;76.62;99280.63;5030753;28;20048;-47
2023/10/27 10:10:35;;;;;;;7.63;4.45;;;;;;;16.02;76.25;99281.06;5030323;28;20034;-45
2023/10/27 10:13:00;;;;;;;7.28;4.00;;;;;;;16.07;76.20;99281.78;5030216;28;20041;-45
2023/10/27 10:15:39;;;;;;;6.85;4.15;;;;;;;15.76;76.83;99285.44;5029681;28;20049;-50
2023/10/27 10:18:28;;;;;;;8.88;4.50;;;;;;;16.16;75.65;99278.84;5030049;28;20040;-48
2023/10/27 10:20:57;;;;;;;7.30;4.07;;;;;;;16.13;75.85;99279.78;5029718;28;20037;-46
2023/10/27 10:23:44;;;;;;;7.47;4.20;;;;;;;16.21;75.39;99282.16;5030922;28;20038;-45
2023/10/27 10:26:10;;;;;;;6.45;4.07;;;;;;;16.17;75.27;99289.28;5032863;28;20038;-49
2023/10/27 10:28:36;;;;;;;6.85;4.18;;;;;;;16.16;75.02;99281.47;5031980;28;20068;-46
2023/10/27 10:31:07;;;;;;;7.43;4.38;;;;;;;16.15;75.39;99290.28;5030419;28;20087;-46
2023/10/27 10:33:46;;;;;;;7.05;3.85;;;;;;;15.98;75.30;99276.84;5029633;28;20041;-46
2023/10/27 10:36:12;;;;;;;4.68;3.17;;;;;;;15.89;75.11;99285.88;5028909;28;20033;-45
2023/10/27 10:38:38;;;;;;;6.57;3.22;;;;;;;16.20;74.94;99280.44;5029680;28;20094;-47
2023/10/27 10:41:04;;;;;;;5.35;3.47;;;;;;;16.19;74.72;99279.59;5030022;28;20402;-45
2023/10/27 10:43:34;;;;;;;6.57;3.67;;;;;;;16.09;75.18;99282.59;5029658;28;20046;-47
2023/10/27 10:46:03;;;;;;;6.25;3.85;;;;;;;16.15;74.87;99278.00;5030106;28;20060;-47
2023/10/27 10:48:30;;;;;;;6.30;3.40;;;;;;;16.33;74.51;99273.84;5029372;28;20037;-44
2023/10/27 10:51:03;;;;;;;5.53;3.58;;;;;;;16.40;74.94;99277.13;5029497;28;20419;-46
2023/10/27 10:53:30;;;;;;;7.13;4.05;;;;;;;16.65;74.78;99274.50;5029298;28;20069;-43
2023/10/27 10:55:58;;;;;;;6.22;3.50;;;;;;;16.39;74.96;99267.50;5029182;28;20043;-45
2023/10/27 10:58:32;;;;;;;5.65;3.85;;;;;;;16.57;74.37;99267.72;5029262;28;20518;-45
2023/10/27 11:01:00;;;;;;;5.15;3.53;;;;;;;16.79;73.90;99270.44;5029516;28;20041;-45
2023/10/27 11:03:28;;;;;;;6.07;3.80;;;;;;;16.80;73.89;99274.78;5029496;28;20076;-46
2023/10/27 11:05:58;;;;;;;5.40;3.75;;;;;;;16.58;74.34;99273.84;5028824;28;20036;-45
2023/10/27 11:08:25;;;;;;;5.63;3.90;;;;;;;16.88;73.73;99278.00;5027604;28;20076;-48
2023/10/27 11:11:01;;;;;;;5.38;3.80;;;;;;;16.48;74.95;99265.41;5028750;28;20098;-45
2023/10/27 11:13:27;;;;;;;4.97;3.63;;;;;;;16.66;74.08;99274.41;5027783;28;20077;-51
2023/10/27 11:15:52;;;;;;;5.40;3.83;;;;;;;16.70;73.86;99268.16;5028397;28;20419;-47
2023/10/27 11:18:18;;;;;;;5.03;3.70;;;;;;;16.69;74.03;99276.09;5028496;28;20064;-45
2023/10/27 11:20:44;;;;;;;5.22;3.42;;;;;;;16.34;74.73;99261.56;5029034;28;20400;-45